sensor_id;sensor_type;location;lat;lon;timestamp;pressure;altitude;pressure_sealevel;temperature;humidity
28510;BME280;15723;55.684;37.928;2023-02-12T00:00:38;98596.22;;;1.17;79.71
28510;BME280;15723;55.684;37.928;2023-02-12T00:03:05;98599.38;;;1.25;80.14
28510;BME280;15723;55.684;37.928;2023-02-12T00:05:32;98594.94;;;1.43;80.26
28510;BME280;15723;55.684;37.928;2023-02-12T00:07:58;98599.81;;;1.35;80.32
28510;BME280;15723;55.684;37.928;2023-02-12T00:10:25;98611.16;;;1.21;79.88
28510;BME280;15723;55.684;37.928;2023-02-12T00:12:54;98608.78;;;1.15;80.32
28510;BME280;15723;55.684;37.928;2023-02-12T00:15:20;98614.69;;;1.41;80.39
28510;BME280;15723;55.684;37.928;2023-02-12T00:17:46;98617.34;;;0.84;80.98
28510;BME280;15723;55.684;37.928;2023-02-12T00:20:12;98616.06;;;1.31;80.60
28510;BME280;15723;55.684;37.928;2023-02-12T00:22:39;98627.38;;;0.98;81.04
28510;BME280;15723;55.684;37.928;2023-02-12T00:25:05;98632.53;;;1.59;80.60
28510;BME280;15723;55.684;37.928;2023-02-12T00:27:33;98638.19;;;1.15;81.11
28510;BME280;15723;55.684;37.928;2023-02-12T00:30:00;98642.03;;;0.89;82.26
28510;BME280;15723;55.684;37.928;2023-02-12T00:32:27;98641.41;;;0.64;82.25
28510;BME280;15723;55.684;37.928;2023-02-12T00:34:53;98640.00;;;0.76;82.17
28510;BME280;15723;55.684;37.928;2023-02-12T00:37:19;98653.75;;;0.67;82.08
28510;BME280;15723;55.684;37.928;2023-02-12T00:39:45;98652.03;;;0.45;82.19
28510;BME280;15723;55.684;37.928;2023-02-12T00:42:12;98657.53;;;0.20;80.61
28510;BME280;15723;55.684;37.928;2023-02-12T00:44:38;98659.81;;;0.09;80.76
28510;BME280;15723;55.684;37.928;2023-02-12T00:47:04;98666.63;;;0.16;80.22
28510;BME280;15723;55.684;37.928;2023-02-12T00:49:31;98662.22;;;0.15;80.50
28510;BME280;15723;55.684;37.928;2023-02-12T00:52:02;98679.28;;;0.11;80.72
28510;BME280;15723;55.684;37.928;2023-02-12T00:54:30;98697.97;;;-0.11;80.50
28510;BME280;15723;55.684;37.928;2023-02-12T00:56:57;98693.13;;;-0.23;81.12
28510;BME280;15723;55.684;37.928;2023-02-12T00:59:29;98699.88;;;-0.36;81.42
28510;BME280;15723;55.684;37.928;2023-02-12T01:01:56;98713.91;;;-0.31;82.00
28510;BME280;15723;55.684;37.928;2023-02-12T01:04:23;98727.69;;;-0.43;81.96
28510;BME280;15723;55.684;37.928;2023-02-12T01:06:49;98716.22;;;-0.45;82.22
28510;BME280;15723;55.684;37.928;2023-02-12T01:09:15;98728.81;;;-0.49;82.31
28510;BME280;15723;55.684;37.928;2023-02-12T01:11:43;98732.22;;;-0.45;82.64
28510;BME280;15723;55.684;37.928;2023-02-12T01:14:09;98734.44;;;-0.56;81.89
28510;BME280;15723;55.684;37.928;2023-02-12T01:16:35;98745.53;;;-0.45;82.28
28510;BME280;15723;55.684;37.928;2023-02-12T01:19:03;98755.34;;;-0.69;81.74
28510;BME280;15723;55.684;37.928;2023-02-12T01:21:32;98753.00;;;-0.78;81.93
28510;BME280;15723;55.684;37.928;2023-02-12T01:24:00;98773.69;;;-0.85;82.19
28510;BME280;15723;55.684;37.928;2023-02-12T01:26:28;98766.97;;;-0.95;83.03
28510;BME280;15723;55.684;37.928;2023-02-12T01:28:57;98784.84;;;-0.99;83.53
28510;BME280;15723;55.684;37.928;2023-02-12T01:31:27;98799.84;;;-0.96;83.27
28510;BME280;15723;55.684;37.928;2023-02-12T01:33:56;98795.78;;;-1.06;83.34
28510;BME280;15723;55.684;37.928;2023-02-12T01:36:23;98808.56;;;-1.17;83.37
28510;BME280;15723;55.684;37.928;2023-02-12T01:38:49;98811.94;;;-1.12;83.08
28510;BME280;15723;55.684;37.928;2023-02-12T01:41:22;98820.19;;;-1.20;83.41
28510;BME280;15723;55.684;37.928;2023-02-12T01:46:41;98838.59;;;-1.39;82.71
28510;BME280;15723;55.684;37.928;2023-02-12T01:49:12;98849.75;;;-1.28;82.99
28510;BME280;15723;55.684;37.928;2023-02-12T01:51:41;98857.84;;;-1.31;82.42
28510;BME280;15723;55.684;37.928;2023-02-12T01:54:11;98860.94;;;-1.43;81.83
28510;BME280;15723;55.684;37.928;2023-02-12T01:56:41;98871.91;;;-1.53;81.39
28510;BME280;15723;55.684;37.928;2023-02-12T01:59:08;98883.50;;;-1.56;81.23
28510;BME280;15723;55.684;37.928;2023-02-12T02:01:35;98879.16;;;-1.59;81.42
28510;BME280;15723;55.684;37.928;2023-02-12T02:04:09;98881.72;;;-1.55;81.61
28510;BME280;15723;55.684;37.928;2023-02-12T02:07:01;98900.88;;;-1.72;81.07
28510;BME280;15723;55.684;37.928;2023-02-12T02:09:32;98912.16;;;-1.64;81.81
28510;BME280;15723;55.684;37.928;2023-02-12T02:12:01;98914.47;;;-1.81;82.56
28510;BME280;15723;55.684;37.928;2023-02-12T02:14:48;98919.75;;;-1.80;82.66
28510;BME280;15723;55.684;37.928;2023-02-12T02:17:37;98936.44;;;-1.75;82.55
28510;BME280;15723;55.684;37.928;2023-02-12T02:25:56;98954.34;;;-1.80;81.54
28510;BME280;15723;55.684;37.928;2023-02-12T02:31:21;98967.16;;;-1.94;81.31
28510;BME280;15723;55.684;37.928;2023-02-12T02:39:04;99002.88;;;-2.03;81.54
28510;BME280;15723;55.684;37.928;2023-02-12T02:41:47;99004.75;;;-2.06;81.87
28510;BME280;15723;55.684;37.928;2023-02-12T02:44:23;99014.47;;;-2.05;81.49
28510;BME280;15723;55.684;37.928;2023-02-12T02:46:52;99005.47;;;-2.01;81.12
28510;BME280;15723;55.684;37.928;2023-02-12T02:49:30;99025.09;;;-2.05;80.64
28510;BME280;15723;55.684;37.928;2023-02-12T02:52:06;99033.03;;;-2.04;80.39
28510;BME280;15723;55.684;37.928;2023-02-12T02:54:47;99034.03;;;-2.08;79.81
28510;BME280;15723;55.684;37.928;2023-02-12T02:57:27;99037.47;;;-2.04;79.24
28510;BME280;15723;55.684;37.928;2023-02-12T03:00:02;99050.66;;;-2.00;79.29
28510;BME280;15723;55.684;37.928;2023-02-12T03:02:33;99042.00;;;-2.08;82.01
28510;BME280;15723;55.684;37.928;2023-02-12T03:05:09;99048.28;;;-2.10;79.74
28510;BME280;15723;55.684;37.928;2023-02-12T03:07:41;99060.97;;;-2.20;79.51
28510;BME280;15723;55.684;37.928;2023-02-12T03:10:15;99076.84;;;-2.17;79.41
28510;BME280;15723;55.684;37.928;2023-02-12T03:16:05;99081.28;;;-2.17;79.39
28510;BME280;15723;55.684;37.928;2023-02-12T03:18:42;99083.03;;;-2.16;79.71
28510;BME280;15723;55.684;37.928;2023-02-12T03:21:14;99107.81;;;-2.16;79.51
28510;BME280;15723;55.684;37.928;2023-02-12T03:23:47;99115.75;;;-2.14;79.59
28510;BME280;15723;55.684;37.928;2023-02-12T03:26:24;99117.47;;;-2.12;79.81
28510;BME280;15723;55.684;37.928;2023-02-12T03:28:52;99113.19;;;-2.17;79.80
28510;BME280;15723;55.684;37.928;2023-02-12T03:32:04;99140.72;;;-2.20;79.37
28510;BME280;15723;55.684;37.928;2023-02-12T03:37:12;99142.50;;;-2.21;79.70
28510;BME280;15723;55.684;37.928;2023-02-12T03:39:57;99156.34;;;-2.08;80.14
28510;BME280;15723;55.684;37.928;2023-02-12T03:42:46;99163.66;;;-2.16;79.52
28510;BME280;15723;55.684;37.928;2023-02-12T03:48:07;99176.41;;;-2.30;79.45
28510;BME280;15723;55.684;37.928;2023-02-12T03:50:46;99187.03;;;-2.30;79.97
28510;BME280;15723;55.684;37.928;2023-02-12T03:53:13;99178.03;;;-2.25;79.84
28510;BME280;15723;55.684;37.928;2023-02-12T03:55:41;99168.13;;;-2.18;79.95
28510;BME280;15723;55.684;37.928;2023-02-12T03:58:13;99188.78;;;-2.29;79.13
28510;BME280;15723;55.684;37.928;2023-02-12T04:00:42;99207.22;;;-2.23;78.97
28510;BME280;15723;55.684;37.928;2023-02-12T04:03:08;99197.81;;;-2.36;78.79
28510;BME280;15723;55.684;37.928;2023-02-12T04:05:34;99208.19;;;-2.26;78.95
28510;BME280;15723;55.684;37.928;2023-02-12T04:08:01;99208.28;;;-2.30;78.79
28510;BME280;15723;55.684;37.928;2023-02-12T04:14:13;99220.84;;;-2.37;78.80
28510;BME280;15723;55.684;37.928;2023-02-12T04:16:32;99227.84;;;-2.33;78.93
28510;BME280;15723;55.684;37.928;2023-02-12T04:19:01;99226.06;;;-2.32;78.84
28510;BME280;15723;55.684;37.928;2023-02-12T04:21:45;99252.78;;;-2.38;78.28
28510;BME280;15723;55.684;37.928;2023-02-12T04:24:42;99244.81;;;-2.38;78.15
28510;BME280;15723;55.684;37.928;2023-02-12T04:30:08;99253.78;;;-2.42;78.06
28510;BME280;15723;55.684;37.928;2023-02-12T04:32:56;99264.63;;;-2.52;77.79
28510;BME280;15723;55.684;37.928;2023-02-12T04:35:46;99275.97;;;-2.45;77.45
28510;BME280;15723;55.684;37.928;2023-02-12T04:38:20;99282.34;;;-2.52;77.62
28510;BME280;15723;55.684;37.928;2023-02-12T04:40:48;99283.19;;;-2.50;77.02
28510;BME280;15723;55.684;37.928;2023-02-12T04:43:25;99277.25;;;-2.63;76.96
28510;BME280;15723;55.684;37.928;2023-02-12T04:45:52;99296.94;;;-2.73;78.66
28510;BME280;15723;55.684;37.928;2023-02-12T04:48:18;99297.78;;;-2.71;79.45
28510;BME280;15723;55.684;37.928;2023-02-12T04:50:45;99306.13;;;-2.89;80.00
28510;BME280;15723;55.684;37.928;2023-02-12T04:53:12;99305.97;;;-2.81;79.81
28510;BME280;15723;55.684;37.928;2023-02-12T04:55:38;99323.63;;;-2.79;79.07
28510;BME280;15723;55.684;37.928;2023-02-12T04:58:05;99329.81;;;-2.78;78.72
28510;BME280;15723;55.684;37.928;2023-02-12T05:00:32;99343.91;;;-2.75;78.46
28510;BME280;15723;55.684;37.928;2023-02-12T05:02:58;99345.53;;;-2.68;78.20
28510;BME280;15723;55.684;37.928;2023-02-12T05:05:24;99352.69;;;-2.71;77.70
28510;BME280;15723;55.684;37.928;2023-02-12T05:07:50;99361.63;;;-2.75;78.08
28510;BME280;15723;55.684;37.928;2023-02-12T05:10:17;99359.03;;;-2.78;77.95
28510;BME280;15723;55.684;37.928;2023-02-12T05:12:44;99364.50;;;-2.86;78.46
28510;BME280;15723;55.684;37.928;2023-02-12T05:15:10;99375.25;;;-2.92;78.25
28510;BME280;15723;55.684;37.928;2023-02-12T05:17:36;99377.88;;;-2.91;78.43
28510;BME280;15723;55.684;37.928;2023-02-12T05:20:04;99382.44;;;-2.97;78.36
28510;BME280;15723;55.684;37.928;2023-02-12T05:22:30;99397.47;;;-2.96;78.29
28510;BME280;15723;55.684;37.928;2023-02-12T05:24:57;99408.09;;;-2.99;77.88
28510;BME280;15723;55.684;37.928;2023-02-12T05:27:23;99414.06;;;-2.85;78.15
28510;BME280;15723;55.684;37.928;2023-02-12T05:29:49;99421.31;;;-2.93;78.01
28510;BME280;15723;55.684;37.928;2023-02-12T05:32:15;99417.81;;;-2.95;77.93
28510;BME280;15723;55.684;37.928;2023-02-12T05:34:41;99427.56;;;-2.97;77.98
28510;BME280;15723;55.684;37.928;2023-02-12T05:37:08;99438.16;;;-2.96;77.79
28510;BME280;15723;55.684;37.928;2023-02-12T05:39:34;99437.19;;;-2.90;77.85
28510;BME280;15723;55.684;37.928;2023-02-12T05:42:00;99445.19;;;-2.93;76.95
28510;BME280;15723;55.684;37.928;2023-02-12T05:44:26;99455.81;;;-2.93;76.54
28510;BME280;15723;55.684;37.928;2023-02-12T05:46:52;99458.47;;;-2.92;76.52
28510;BME280;15723;55.684;37.928;2023-02-12T05:49:18;99453.81;;;-2.80;76.45
28510;BME280;15723;55.684;37.928;2023-02-12T05:51:45;99463.78;;;-2.93;76.18
28510;BME280;15723;55.684;37.928;2023-02-12T05:54:11;99470.81;;;-2.89;75.96
28510;BME280;15723;55.684;37.928;2023-02-12T05:56:42;99478.81;;;-2.91;75.16
28510;BME280;15723;55.684;37.928;2023-02-12T05:59:15;99479.50;;;-2.81;74.85
28510;BME280;15723;55.684;37.928;2023-02-12T06:01:42;99482.13;;;-2.79;74.34
28510;BME280;15723;55.684;37.928;2023-02-12T06:04:14;99493.59;;;-2.76;73.58
28510;BME280;15723;55.684;37.928;2023-02-12T06:06:41;99518.41;;;-2.77;72.97
28510;BME280;15723;55.684;37.928;2023-02-12T06:09:09;99514.66;;;-2.65;72.33
28510;BME280;15723;55.684;37.928;2023-02-12T06:11:36;99500.41;;;-2.60;72.06
28510;BME280;15723;55.684;37.928;2023-02-12T06:14:07;99502.94;;;-2.54;71.82
28510;BME280;15723;55.684;37.928;2023-02-12T06:16:34;99519.03;;;-2.63;71.80
28510;BME280;15723;55.684;37.928;2023-02-12T06:19:02;99530.56;;;-2.64;71.21
28510;BME280;15723;55.684;37.928;2023-02-12T06:21:29;99541.13;;;-2.58;70.84
28510;BME280;15723;55.684;37.928;2023-02-12T06:23:57;99549.16;;;-2.64;70.90
28510;BME280;15723;55.684;37.928;2023-02-12T06:26:23;99542.41;;;-2.32;71.09
28510;BME280;15723;55.684;37.928;2023-02-12T06:28:50;99550.16;;;-2.69;70.71
28510;BME280;15723;55.684;37.928;2023-02-12T06:31:23;99555.03;;;-2.43;71.19
28510;BME280;15723;55.684;37.928;2023-02-12T06:33:50;99571.81;;;-2.41;71.26
28510;BME280;15723;55.684;37.928;2023-02-12T06:36:17;99577.50;;;-2.64;70.31
28510;BME280;15723;55.684;37.928;2023-02-12T06:38:43;99587.72;;;-2.38;70.08
28510;BME280;15723;55.684;37.928;2023-02-12T06:41:10;99589.78;;;-2.56;69.75
28510;BME280;15723;55.684;37.928;2023-02-12T06:43:37;99587.97;;;-2.52;70.14
28510;BME280;15723;55.684;37.928;2023-02-12T06:46:10;99597.81;;;-2.59;70.06
28510;BME280;15723;55.684;37.928;2023-02-12T06:48:37;99612.09;;;-2.66;70.50
28510;BME280;15723;55.684;37.928;2023-02-12T06:51:09;99617.16;;;-2.50;70.46
28510;BME280;15723;55.684;37.928;2023-02-12T06:53:35;99617.19;;;-2.52;71.07
28510;BME280;15723;55.684;37.928;2023-02-12T06:56:04;99620.84;;;-2.58;70.73
28510;BME280;15723;55.684;37.928;2023-02-12T06:58:30;99616.50;;;-2.65;71.40
28510;BME280;15723;55.684;37.928;2023-02-12T07:01:16;99638.53;;;-2.57;71.24
28510;BME280;15723;55.684;37.928;2023-02-12T07:03:47;99639.38;;;-2.55;71.39
28510;BME280;15723;55.684;37.928;2023-02-12T07:06:13;99647.56;;;-2.70;71.27
28510;BME280;15723;55.684;37.928;2023-02-12T07:08:40;99651.00;;;-2.60;71.24
28510;BME280;15723;55.684;37.928;2023-02-12T07:11:06;99661.28;;;-2.40;71.13
28510;BME280;15723;55.684;37.928;2023-02-12T07:13:33;99650.66;;;-2.40;70.84
28510;BME280;15723;55.684;37.928;2023-02-12T07:16:07;99659.91;;;-2.66;70.24
28510;BME280;15723;55.684;37.928;2023-02-12T07:18:35;99670.44;;;-2.58;70.57
28510;BME280;15723;55.684;37.928;2023-02-12T07:21:02;99680.28;;;-2.66;70.73
28510;BME280;15723;55.684;37.928;2023-02-12T07:23:30;99691.75;;;-2.63;70.52
28510;BME280;15723;55.684;37.928;2023-02-12T07:25:58;99666.91;;;-2.59;70.42
28510;BME280;15723;55.684;37.928;2023-02-12T07:28:25;99675.78;;;-2.61;70.47
28510;BME280;15723;55.684;37.928;2023-02-12T07:30:52;99677.34;;;-2.46;69.99
28510;BME280;15723;55.684;37.928;2023-02-12T07:33:19;99682.84;;;-2.57;69.87
28510;BME280;15723;55.684;37.928;2023-02-12T07:35:45;99707.09;;;-2.81;70.09
28510;BME280;15723;55.684;37.928;2023-02-12T07:38:11;99719.19;;;-2.62;70.46
28510;BME280;15723;55.684;37.928;2023-02-12T07:40:38;99713.72;;;-2.50;70.30
28510;BME280;15723;55.684;37.928;2023-02-12T07:43:04;99719.13;;;-2.56;70.04
28510;BME280;15723;55.684;37.928;2023-02-12T07:45:34;99726.31;;;-2.64;70.09
28510;BME280;15723;55.684;37.928;2023-02-12T07:48:01;99729.03;;;-2.69;69.61
28510;BME280;15723;55.684;37.928;2023-02-12T07:50:27;99738.72;;;-2.65;70.34
28510;BME280;15723;55.684;37.928;2023-02-12T07:52:53;99740.22;;;-2.44;69.41
28510;BME280;15723;55.684;37.928;2023-02-12T07:55:19;99739.69;;;-2.09;67.65
28510;BME280;15723;55.684;37.928;2023-02-12T07:57:45;99742.97;;;-1.93;67.61
28510;BME280;15723;55.684;37.928;2023-02-12T08:00:12;99744.59;;;-1.86;67.16
28510;BME280;15723;55.684;37.928;2023-02-12T08:02:39;99750.34;;;-2.10;67.36
28510;BME280;15723;55.684;37.928;2023-02-12T08:05:06;99752.69;;;-1.40;65.31
28510;BME280;15723;55.684;37.928;2023-02-12T08:07:32;99757.97;;;-1.89;65.40
28510;BME280;15723;55.684;37.928;2023-02-12T08:10:01;99771.63;;;-2.10;66.36
28510;BME280;15723;55.684;37.928;2023-02-12T08:12:29;99777.06;;;-2.18;66.39
28510;BME280;15723;55.684;37.928;2023-02-12T08:14:56;99779.25;;;-1.89;66.08
28510;BME280;15723;55.684;37.928;2023-02-12T08:17:22;99798.22;;;-2.10;65.61
28510;BME280;15723;55.684;37.928;2023-02-12T08:19:48;99792.59;;;-1.92;64.57
28510;BME280;15723;55.684;37.928;2023-02-12T08:22:14;99811.38;;;-2.01;65.18
28510;BME280;15723;55.684;37.928;2023-02-12T08:24:40;99808.47;;;-1.84;64.80
28510;BME280;15723;55.684;37.928;2023-02-12T08:27:07;99809.19;;;-1.75;63.67
28510;BME280;15723;55.684;37.928;2023-02-12T08:29:33;99804.00;;;-2.42;64.87
28510;BME280;15723;55.684;37.928;2023-02-12T08:32:01;99815.25;;;-2.25;64.42
28510;BME280;15723;55.684;37.928;2023-02-12T08:34:31;99822.69;;;-2.50;64.90
28510;BME280;15723;55.684;37.928;2023-02-12T08:36:58;99833.69;;;-2.80;64.78
28510;BME280;15723;55.684;37.928;2023-02-12T08:39:26;99840.38;;;-2.47;64.34
28510;BME280;15723;55.684;37.928;2023-02-12T08:41:55;99834.75;;;-2.26;63.93
28510;BME280;15723;55.684;37.928;2023-02-12T08:44:21;99841.22;;;-2.44;63.71
28510;BME280;15723;55.684;37.928;2023-02-12T08:46:49;99844.59;;;-2.33;63.20
28510;BME280;15723;55.684;37.928;2023-02-12T08:49:18;99844.06;;;-2.58;64.44
28510;BME280;15723;55.684;37.928;2023-02-12T08:51:49;99847.59;;;-2.56;63.22
28510;BME280;15723;55.684;37.928;2023-02-12T08:54:18;99853.09;;;-2.72;63.66
28510;BME280;15723;55.684;37.928;2023-02-12T08:56:44;99861.44;;;-2.32;62.91
28510;BME280;15723;55.684;37.928;2023-02-12T08:59:13;99860.66;;;-2.39;62.05
28510;BME280;15723;55.684;37.928;2023-02-12T09:01:40;99864.34;;;-2.49;62.49
28510;BME280;15723;55.684;37.928;2023-02-12T09:04:12;99867.13;;;-2.63;62.11
28510;BME280;15723;55.684;37.928;2023-02-12T09:06:40;99862.28;;;-2.29;62.82
28510;BME280;15723;55.684;37.928;2023-02-12T09:09:07;99870.44;;;-2.42;61.86
28510;BME280;15723;55.684;37.928;2023-02-12T09:11:34;99873.78;;;-2.28;61.30
28510;BME280;15723;55.684;37.928;2023-02-12T09:14:02;99887.25;;;-2.40;61.50
28510;BME280;15723;55.684;37.928;2023-02-12T09:16:32;99895.38;;;-2.53;61.32
28510;BME280;15723;55.684;37.928;2023-02-12T09:18:59;99884.75;;;-2.53;62.18
28510;BME280;15723;55.684;37.928;2023-02-12T09:21:25;99900.28;;;-2.96;62.27
28510;BME280;15723;55.684;37.928;2023-02-12T09:23:52;99901.72;;;-2.66;61.86
28510;BME280;15723;55.684;37.928;2023-02-12T09:26:21;99908.78;;;-2.60;62.27
28510;BME280;15723;55.684;37.928;2023-02-12T09:28:48;99910.41;;;-2.50;62.12
28510;BME280;15723;55.684;37.928;2023-02-12T09:31:18;99918.94;;;-2.21;61.73
28510;BME280;15723;55.684;37.928;2023-02-12T09:33:45;99921.16;;;-2.62;61.82
28510;BME280;15723;55.684;37.928;2023-02-12T09:36:14;99921.78;;;-2.37;61.80
28510;BME280;15723;55.684;37.928;2023-02-12T09:38:41;99918.66;;;-2.02;62.08
28510;BME280;15723;55.684;37.928;2023-02-12T09:49:57;99924.97;;;-2.09;60.59
28510;BME280;15723;55.684;37.928;2023-02-12T09:51:57;99925.59;;;-1.91;60.82
28510;BME280;15723;55.684;37.928;2023-02-12T09:54:28;99933.53;;;-1.84;61.11
28510;BME280;15723;55.684;37.928;2023-02-12T09:57:00;99941.06;;;-2.18;62.68
28510;BME280;15723;55.684;37.928;2023-02-12T09:59:36;99934.78;;;-2.13;61.92
28510;BME280;15723;55.684;37.928;2023-02-12T10:02:14;99928.94;;;-2.44;61.71
28510;BME280;15723;55.684;37.928;2023-02-12T10:04:42;99931.13;;;-2.04;62.09
28510;BME280;15723;55.684;37.928;2023-02-12T10:09:56;99947.47;;;-1.67;63.00
28510;BME280;15723;55.684;37.928;2023-02-12T10:12:52;99941.16;;;-2.28;62.96
28510;BME280;15723;55.684;37.928;2023-02-12T10:15:33;99957.44;;;-1.81;63.08
28510;BME280;15723;55.684;37.928;2023-02-12T10:20:53;99964.97;;;-2.17;62.64
28510;BME280;15723;55.684;37.928;2023-02-12T10:23:38;99970.34;;;-2.25;63.27
28510;BME280;15723;55.684;37.928;2023-02-12T10:28:42;99977.09;;;-1.95;62.22
28510;BME280;15723;55.684;37.928;2023-02-12T10:31:30;99973.06;;;-2.28;62.82
28510;BME280;15723;55.684;37.928;2023-02-12T10:33:57;99970.41;;;-2.28;61.87
28510;BME280;15723;55.684;37.928;2023-02-12T10:36:43;99973.97;;;-2.30;62.51
28510;BME280;15723;55.684;37.928;2023-02-12T10:44:15;100004.03;;;-2.24;61.17
28510;BME280;15723;55.684;37.928;2023-02-12T10:46:41;99992.22;;;-1.98;61.82
28510;BME280;15723;55.684;37.928;2023-02-12T10:49:10;99999.00;;;-2.49;61.23
28510;BME280;15723;55.684;37.928;2023-02-12T10:54:44;100007.50;;;-2.14;61.09
28510;BME280;15723;55.684;37.928;2023-02-12T10:57:26;100004.91;;;-2.23;60.05
28510;BME280;15723;55.684;37.928;2023-02-12T10:59:56;100010.91;;;-2.04;60.33
28510;BME280;15723;55.684;37.928;2023-02-12T11:02:29;100019.66;;;-1.95;60.48
28510;BME280;15723;55.684;37.928;2023-02-12T11:04:57;100029.75;;;-2.24;60.60
28510;BME280;15723;55.684;37.928;2023-02-12T11:07:46;100033.56;;;-2.49;60.57
28510;BME280;15723;55.684;37.928;2023-02-12T11:10:20;100030.91;;;-2.51;60.88
28510;BME280;15723;55.684;37.928;2023-02-12T11:12:49;100045.84;;;-2.36;60.43
28510;BME280;15723;55.684;37.928;2023-02-12T11:15:21;100039.59;;;-2.34;60.14
28510;BME280;15723;55.684;37.928;2023-02-12T11:17:59;100044.00;;;-2.33;60.46
28510;BME280;15723;55.684;37.928;2023-02-12T11:20:38;100041.38;;;-2.34;59.61
28510;BME280;15723;55.684;37.928;2023-02-12T11:23:29;100053.03;;;-2.47;59.76
28510;BME280;15723;55.684;37.928;2023-02-12T11:28:58;100055.69;;;-2.47;60.02
28510;BME280;15723;55.684;37.928;2023-02-12T11:36:32;100071.19;;;-3.01;60.63
28510;BME280;15723;55.684;37.928;2023-02-12T11:39:01;100058.72;;;-2.90;61.46
28510;BME280;15723;55.684;37.928;2023-02-12T11:41:35;100077.41;;;-3.07;60.96
28510;BME280;15723;55.684;37.928;2023-02-12T11:44:36;100080.00;;;-2.99;61.24
28510;BME280;15723;55.684;37.928;2023-02-12T11:47:27;100084.44;;;-2.98;61.17
28510;BME280;15723;55.684;37.928;2023-02-12T11:52:55;100096.06;;;-3.16;61.10
28510;BME280;15723;55.684;37.928;2023-02-12T11:55:25;100099.56;;;-3.11;61.29
28510;BME280;15723;55.684;37.928;2023-02-12T11:58:00;100101.38;;;-3.15;61.20
28510;BME280;15723;55.684;37.928;2023-02-12T12:00:31;100105.81;;;-3.17;61.51
28510;BME280;15723;55.684;37.928;2023-02-12T12:03:14;100098.69;;;-3.13;61.74
28510;BME280;15723;55.684;37.928;2023-02-12T12:05:57;100121.69;;;-3.10;61.85
28510;BME280;15723;55.684;37.928;2023-02-12T12:08:39;100118.16;;;-3.08;61.78
28510;BME280;15723;55.684;37.928;2023-02-12T12:11:17;100124.38;;;-3.13;62.07
28510;BME280;15723;55.684;37.928;2023-02-12T12:14:26;100128.72;;;-3.03;61.73
28510;BME280;15723;55.684;37.928;2023-02-12T12:17:12;100142.00;;;-2.97;62.59
28510;BME280;15723;55.684;37.928;2023-02-12T12:20:12;100144.59;;;-2.88;62.87
28510;BME280;15723;55.684;37.928;2023-02-12T12:25:41;100154.38;;;-2.93;63.28
28510;BME280;15723;55.684;37.928;2023-02-12T12:28:29;100154.41;;;-2.96;63.32
28510;BME280;15723;55.684;37.928;2023-02-12T12:31:07;100157.06;;;-2.96;63.53
28510;BME280;15723;55.684;37.928;2023-02-12T12:36:58;100173.91;;;-3.06;63.68
28510;BME280;15723;55.684;37.928;2023-02-12T12:45:09;100179.34;;;-3.31;63.88
28510;BME280;15723;55.684;37.928;2023-02-12T13:05:17;100219.97;;;-3.15;62.63
28510;BME280;15723;55.684;37.928;2023-02-12T13:14:12;100244.84;;;-3.39;63.05
28510;BME280;15723;55.684;37.928;2023-02-12T13:16:50;100249.25;;;-3.32;63.55
28510;BME280;15723;55.684;37.928;2023-02-12T13:19:31;100252.81;;;-3.47;63.99
28510;BME280;15723;55.684;37.928;2023-02-12T13:27:39;100276.72;;;-3.54;64.49
28510;BME280;15723;55.684;37.928;2023-02-12T13:33:08;100276.69;;;-3.42;64.99
28510;BME280;15723;55.684;37.928;2023-02-12T13:35:40;100276.72;;;-3.50;65.53
28510;BME280;15723;55.684;37.928;2023-02-12T13:38:24;100294.41;;;-3.56;66.00
28510;BME280;15723;55.684;37.928;2023-02-12T13:40:58;100278.50;;;-3.52;65.46
28510;BME280;15723;55.684;37.928;2023-02-12T13:51:48;100303.28;;;-3.63;66.47
28510;BME280;15723;55.684;37.928;2023-02-12T13:54:28;100295.31;;;-3.57;66.22
28510;BME280;15723;55.684;37.928;2023-02-12T13:57:01;100299.75;;;-3.61;66.82
28510;BME280;15723;55.684;37.928;2023-02-12T13:59:39;100297.06;;;-3.79;66.46
28510;BME280;15723;55.684;37.928;2023-02-12T14:05:19;100308.59;;;-3.85;66.35
28510;BME280;15723;55.684;37.928;2023-02-12T14:07:50;100316.53;;;-3.85;66.53
28510;BME280;15723;55.684;37.928;2023-02-12T14:10:38;100319.19;;;-3.85;66.35
28510;BME280;15723;55.684;37.928;2023-02-12T14:15:40;100323.63;;;-3.99;66.98
28510;BME280;15723;55.684;37.928;2023-02-12T14:18:36;100324.50;;;-4.04;66.93
28510;BME280;15723;55.684;37.928;2023-02-12T14:23:39;100327.16;;;-4.04;66.86
28510;BME280;15723;55.684;37.928;2023-02-12T14:26:23;100330.66;;;-4.16;67.40
28510;BME280;15723;55.684;37.928;2023-02-12T14:28:53;100337.72;;;-4.11;67.21
28510;BME280;15723;55.684;37.928;2023-02-12T14:31:30;100354.50;;;-4.22;66.92
28510;BME280;15723;55.684;37.928;2023-02-12T14:36:38;100354.50;;;-4.28;67.30
28510;BME280;15723;55.684;37.928;2023-02-12T14:44:55;100372.13;;;-4.43;67.28
28510;BME280;15723;55.684;37.928;2023-02-12T14:49:56;100380.09;;;-4.39;67.27
28510;BME280;15723;55.684;37.928;2023-02-12T14:52:31;100382.72;;;-4.44;67.19
28510;BME280;15723;55.684;37.928;2023-02-12T14:55:06;100398.56;;;-4.53;67.50
28510;BME280;15723;55.684;37.928;2023-02-12T14:57:40;100402.13;;;-4.47;67.48
28510;BME280;15723;55.684;37.928;2023-02-12T15:00:22;100398.56;;;-4.55;67.72
28510;BME280;15723;55.684;37.928;2023-02-12T15:05:23;100410.91;;;-4.60;67.91
28510;BME280;15723;55.684;37.928;2023-02-12T15:08:02;100420.63;;;-4.59;67.98
28510;BME280;15723;55.684;37.928;2023-02-12T15:10:36;100417.06;;;-4.62;68.14
28510;BME280;15723;55.684;37.928;2023-02-12T15:13:22;100421.53;;;-4.54;68.31
28510;BME280;15723;55.684;37.928;2023-02-12T15:15:52;100427.63;;;-4.70;68.51
28510;BME280;15723;55.684;37.928;2023-02-12T15:21:17;100431.16;;;-4.69;68.46
28510;BME280;15723;55.684;37.928;2023-02-12T15:23:47;100440.88;;;-4.70;68.69
28510;BME280;15723;55.684;37.928;2023-02-12T15:26:23;100452.34;;;-4.71;68.76
28510;BME280;15723;55.684;37.928;2023-02-12T15:28:51;100460.28;;;-4.74;68.80
28510;BME280;15723;55.684;37.928;2023-02-12T15:31:21;100464.69;;;-4.75;68.69
28510;BME280;15723;55.684;37.928;2023-02-12T15:33:51;100465.56;;;-4.80;68.87